createdAt,value
2022-12-31T00:00:41.489Z,10.20
2022-12-31T00:03:10.900Z,10.20
2022-12-31T00:05:38.995Z,10.30
2022-12-31T00:08:07.031Z,10.40
2022-12-31T00:10:41.401Z,10.40
2022-12-31T00:13:10.328Z,10.50
2022-12-31T00:15:38.520Z,10.50
2022-12-31T00:18:07.883Z,10.60
2022-12-31T00:20:39.125Z,10.60
2022-12-31T00:23:09.977Z,10.60
2022-12-31T00:25:39.319Z,10.60
2022-12-31T00:28:07.347Z,10.60
2022-12-31T00:30:35.580Z,10.70
2022-12-31T00:33:03.566Z,10.70
2022-12-31T00:35:31.533Z,10.70
2022-12-31T00:37:59.419Z,10.70
2022-12-31T00:40:29.355Z,10.70
2022-12-31T00:42:58.728Z,10.80
2022-12-31T00:45:26.823Z,10.80
2022-12-31T00:47:54.680Z,10.80
2022-12-31T00:50:22.602Z,10.80
2022-12-31T00:52:50.488Z,10.80
2022-12-31T00:55:18.404Z,10.90
2022-12-31T00:57:46.295Z,10.90
2022-12-31T01:00:17.545Z,10.90
2022-12-31T01:02:45.547Z,10.90
2022-12-31T01:05:13.552Z,10.90
2022-12-31T01:07:41.473Z,11.00
2022-12-31T01:10:10.714Z,10.90
2022-12-31T01:12:38.586Z,10.90
2022-12-31T01:15:08.121Z,10.90
2022-12-31T01:17:37.325Z,11.00
2022-12-31T01:20:07.985Z,11.00
2022-12-31T01:22:35.907Z,11.10
2022-12-31T01:25:04.074Z,11.10
2022-12-31T01:27:31.990Z,11.10
2022-12-31T01:29:59.898Z,11.20
2022-12-31T01:32:27.761Z,11.20
2022-12-31T01:34:56.956Z,11.20
2022-12-31T01:37:24.842Z,11.20
2022-12-31T01:39:52.737Z,11.30
2022-12-31T01:42:20.636Z,11.30
2022-12-31T01:44:53.524Z,11.30
2022-12-31T01:47:35.439Z,11.40
2022-12-31T01:50:13.593Z,11.40
2022-12-31T01:52:44.771Z,11.40
2022-12-31T01:55:20.277Z,11.40
2022-12-31T01:57:53.026Z,11.40
2022-12-31T02:00:21.301Z,11.40
2022-12-31T02:02:49.353Z,11.50
2022-12-31T02:05:28.312Z,11.50
2022-12-31T02:07:57.235Z,11.50
2022-12-31T02:10:25.135Z,11.50
2022-12-31T02:12:53.700Z,11.60
2022-12-31T02:15:32.009Z,11.60
2022-12-31T02:18:11.616Z,11.60
2022-12-31T02:21:45.404Z,11.60
2022-12-31T02:24:53.442Z,11.60
2022-12-31T02:27:46.099Z,11.60
2022-12-31T02:30:19.701Z,11.60
2022-12-31T02:33:05.099Z,11.60
2022-12-31T02:35:42.581Z,11.60
2022-12-31T02:38:18.803Z,11.60
2022-12-31T02:40:48.060Z,11.60
2022-12-31T02:43:16.093Z,11.60
2022-12-31T02:45:51.468Z,11.70
2022-12-31T02:48:39.495Z,11.70
2022-12-31T02:51:29.777Z,11.70
2022-12-31T02:54:17.632Z,11.70
2022-12-31T02:56:59.591Z,11.70
2022-12-31T02:59:52.879Z,11.70
2022-12-31T03:02:25.206Z,11.70
2022-12-31T03:04:56.519Z,11.70
2022-12-31T03:07:28.038Z,11.70
2022-12-31T03:09:56.976Z,11.80
2022-12-31T03:12:46.625Z,11.80
2022-12-31T03:15:20.877Z,11.80
2022-12-31T03:17:58.217Z,11.90
2022-12-31T03:20:48.533Z,11.90
2022-12-31T03:23:21.934Z,11.90
2022-12-31T03:25:49.377Z,11.90
2022-12-31T03:28:21.350Z,11.90
2022-12-31T03:30:53.097Z,11.90
2022-12-31T03:33:24.025Z,11.90
2022-12-31T03:35:53.476Z,11.80
2022-12-31T03:38:21.583Z,11.80
2022-12-31T03:40:53.043Z,11.80
2022-12-31T03:43:21.498Z,11.80
2022-12-31T03:45:52.334Z,11.80
2022-12-31T03:48:23.730Z,11.80
2022-12-31T03:50:52.343Z,11.80
2022-12-31T03:53:20.406Z,11.80
2022-12-31T03:55:52.796Z,11.80
2022-12-31T03:58:21.072Z,11.80
2022-12-31T04:00:49.071Z,11.80
2022-12-31T04:03:17.149Z,11.80
2022-12-31T04:05:46.390Z,11.90
2022-12-31T04:08:14.271Z,11.80
2022-12-31T04:10:42.161Z,11.90
2022-12-31T04:13:11.022Z,11.90
2022-12-31T04:15:38.949Z,11.90
2022-12-31T04:18:07.055Z,11.90
2022-12-31T04:20:34.960Z,11.90
2022-12-31T04:23:04.271Z,12.00
2022-12-31T04:25:32.341Z,12.00
2022-12-31T04:28:00.210Z,12.00
2022-12-31T04:30:28.112Z,12.00
2022-12-31T04:32:56.011Z,12.00
2022-12-31T04:35:23.952Z,12.00
2022-12-31T04:37:51.819Z,12.00
2022-12-31T04:40:21.204Z,12.00
2022-12-31T04:42:49.133Z,12.00
2022-12-31T04:45:17.253Z,12.00
2022-12-31T04:47:45.135Z,12.00
2022-12-31T04:50:13.069Z,12.10
2022-12-31T04:52:43.049Z,12.10
2022-12-31T04:55:12.169Z,12.20
2022-12-31T04:57:42.315Z,12.10
2022-12-31T05:00:11.800Z,12.20
2022-12-31T05:02:39.895Z,12.30
2022-12-31T05:05:08.835Z,12.30
2022-12-31T05:07:36.750Z,12.40
2022-12-31T05:10:06.227Z,12.40
2022-12-31T05:12:34.166Z,12.50
2022-12-31T05:15:03.489Z,12.50
2022-12-31T05:17:31.389Z,12.50
2022-12-31T05:19:59.305Z,12.50
2022-12-31T05:22:29.842Z,12.50
2022-12-31T05:24:58.660Z,12.60
2022-12-31T05:27:28.267Z,12.60
2022-12-31T05:29:56.209Z,12.70
2022-12-31T05:32:25.437Z,12.70
2022-12-31T05:34:54.053Z,12.80
2022-12-31T05:37:21.948Z,12.80
2022-12-31T05:39:50.052Z,12.80
2022-12-31T05:42:17.962Z,12.80
2022-12-31T05:44:45.874Z,12.80
2022-12-31T05:47:14.383Z,12.80
2022-12-31T05:49:43.619Z,12.80
2022-12-31T05:52:11.846Z,12.80
2022-12-31T05:54:39.737Z,12.80
2022-12-31T05:57:08.471Z,12.80
2022-12-31T05:59:36.523Z,12.80
2022-12-31T06:02:04.487Z,12.70
2022-12-31T06:04:32.874Z,12.70
2022-12-31T06:07:02.627Z,12.70
2022-12-31T06:09:30.540Z,12.80
2022-12-31T06:11:58.566Z,12.80
2022-12-31T06:14:26.448Z,12.80
2022-12-31T06:16:54.340Z,12.70
2022-12-31T06:19:24.474Z,12.70
2022-12-31T06:21:52.705Z,12.70
2022-12-31T06:24:23.028Z,12.60
2022-12-31T06:26:51.205Z,12.60
2022-12-31T06:29:19.164Z,12.60
2022-12-31T06:31:48.287Z,12.60
2022-12-31T06:34:16.614Z,12.60
2022-12-31T06:36:44.542Z,12.60
2022-12-31T06:39:12.484Z,12.60
2022-12-31T06:41:42.656Z,12.60
2022-12-31T06:44:10.608Z,12.60
2022-12-31T06:46:38.631Z,12.60
2022-12-31T06:49:06.981Z,12.60
2022-12-31T06:51:34.923Z,12.60
2022-12-31T06:54:02.898Z,12.70
2022-12-31T06:56:34.846Z,12.70
2022-12-31T06:59:05.921Z,12.70
2022-12-31T07:01:52.199Z,12.80
2022-12-31T07:05:02.196Z,12.80
2022-12-31T07:07:39.260Z,12.80
2022-12-31T07:10:27.298Z,12.90
2022-12-31T07:13:09.986Z,13.00
2022-12-31T07:16:05.665Z,13.00
2022-12-31T07:18:42.469Z,13.00
2022-12-31T07:21:15.231Z,13.10
2022-12-31T07:23:44.587Z,13.10
2022-12-31T07:26:25.123Z,13.20
2022-12-31T07:29:06.643Z,13.20
2022-12-31T07:31:53.791Z,13.30
2022-12-31T07:34:33.044Z,13.30
2022-12-31T07:37:11.071Z,13.30
2022-12-31T07:39:52.577Z,13.30
2022-12-31T07:42:28.695Z,13.30
2022-12-31T07:45:07.759Z,13.30
2022-12-31T07:47:38.066Z,13.30
2022-12-31T07:50:07.570Z,13.40
2022-12-31T07:52:36.394Z,13.40
2022-12-31T07:55:04.576Z,13.40
2022-12-31T07:57:41.859Z,13.30
2022-12-31T08:00:15.369Z,13.30
2022-12-31T08:03:18.027Z,13.40
2022-12-31T08:05:55.431Z,13.40
2022-12-31T08:08:37.494Z,13.40
2022-12-31T08:11:17.279Z,13.40
2022-12-31T08:13:46.409Z,13.50
2022-12-31T08:16:15.588Z,13.50
2022-12-31T08:18:45.593Z,13.60
2022-12-31T08:21:31.040Z,13.60
2022-12-31T08:24:17.352Z,13.70
2022-12-31T08:26:57.381Z,13.70
2022-12-31T08:29:37.533Z,13.70
2022-12-31T08:32:16.829Z,13.80
2022-12-31T08:35:01.828Z,13.80
2022-12-31T08:37:38.752Z,13.80
2022-12-31T08:40:23.300Z,13.70
2022-12-31T08:43:12.139Z,13.70
2022-12-31T08:45:48.413Z,13.70
2022-12-31T08:48:31.074Z,13.60
2022-12-31T08:51:01.125Z,13.60
2022-12-31T08:53:29.727Z,13.70
2022-12-31T08:56:10.976Z,13.70
2022-12-31T08:58:51.364Z,13.70
2022-12-31T09:01:28.024Z,13.70
2022-12-31T09:04:12.216Z,13.80
2022-12-31T09:06:52.628Z,13.80
2022-12-31T09:09:33.151Z,13.90
2022-12-31T09:12:15.397Z,13.90
2022-12-31T09:14:48.097Z,14.00
2022-12-31T09:17:44.475Z,14.00
2022-12-31T09:20:25.092Z,14.10
2022-12-31T09:22:56.234Z,14.10
2022-12-31T09:25:27.093Z,14.10
2022-12-31T09:28:19.646Z,14.20
2022-12-31T09:30:59.668Z,14.20
2022-12-31T09:33:41.267Z,14.20
2022-12-31T09:36:15.598Z,14.20
2022-12-31T09:38:54.078Z,14.30
2022-12-31T09:41:59.536Z,14.30
2022-12-31T09:45:17.505Z,14.40
2022-12-31T09:48:38.780Z,14.40
2022-12-31T09:51:25.448Z,14.40
2022-12-31T09:54:20.969Z,14.40
2022-12-31T09:57:08.720Z,14.40
2022-12-31T09:59:47.933Z,14.50
2022-12-31T10:02:48.859Z,14.50
2022-12-31T10:05:47.709Z,14.50
2022-12-31T10:08:42.384Z,14.50
2022-12-31T10:11:23.853Z,14.50
2022-12-31T10:14:16.358Z,14.50
2022-12-31T10:16:59.646Z,14.60
2022-12-31T10:20:07.115Z,14.60
2022-12-31T10:23:09.351Z,14.60
2022-12-31T10:26:07.454Z,14.50
2022-12-31T10:28:49.886Z,14.60
2022-12-31T10:31:33.484Z,14.60
2022-12-31T10:34:16.676Z,14.60
2022-12-31T10:36:56.067Z,14.60
2022-12-31T10:39:42.846Z,14.60
2022-12-31T10:43:01.219Z,14.70
2022-12-31T10:46:23.125Z,14.70
2022-12-31T10:49:31.183Z,14.70
2022-12-31T10:52:41.382Z,14.70
2022-12-31T10:55:57.529Z,14.70
2022-12-31T10:59:21.369Z,14.80
2022-12-31T11:02:20.074Z,14.80
2022-12-31T11:05:38.988Z,14.80
2022-12-31T11:08:36.553Z,14.90
2022-12-31T11:11:26.589Z,14.90
2022-12-31T11:14:43.466Z,15.00
2022-12-31T11:17:32.163Z,15.10
2022-12-31T11:20:32.296Z,15.20
2022-12-31T11:23:19.339Z,15.30
2022-12-31T11:26:06.123Z,15.40
2022-12-31T11:29:19.163Z,15.50
2022-12-31T11:32:12.918Z,15.50
2022-12-31T11:35:04.808Z,15.50
2022-12-31T11:37:47.782Z,15.60
2022-12-31T11:40:48.070Z,15.60
2022-12-31T11:43:34.527Z,15.50
2022-12-31T11:46:29.808Z,15.60
2022-12-31T11:49:16.366Z,15.60
2022-12-31T11:52:15.058Z,15.60
2022-12-31T11:55:06.937Z,15.60
2022-12-31T11:57:38.008Z,15.60
2022-12-31T12:00:18.942Z,15.60
2022-12-31T12:02:50.524Z,15.70
2022-12-31T12:05:21.567Z,15.70
2022-12-31T12:07:52.529Z,15.70
2022-12-31T12:10:33.519Z,15.70
2022-12-31T12:13:19.308Z,15.80
2022-12-31T12:15:50.897Z,15.70
2022-12-31T12:18:36.023Z,15.70
2022-12-31T12:21:11.848Z,16.00
2022-12-31T12:23:42.555Z,16.40
2022-12-31T12:26:33.609Z,16.30
2022-12-31T12:29:11.120Z,16.00
2022-12-31T12:31:40.047Z,15.90
2022-12-31T12:34:24.479Z,15.80
2022-12-31T12:36:52.652Z,15.80
2022-12-31T12:39:25.353Z,15.90
2022-12-31T12:42:06.154Z,16.20
2022-12-31T12:44:35.837Z,16.10
2022-12-31T12:47:07.951Z,16.00
2022-12-31T12:49:41.809Z,16.30
2022-12-31T12:52:46.894Z,16.20
2022-12-31T12:55:26.437Z,16.00
2022-12-31T12:58:17.106Z,16.50
2022-12-31T13:00:56.785Z,16.70
2022-12-31T13:04:34.975Z,17.00
2022-12-31T13:07:30.163Z,17.00
2022-12-31T13:10:16.835Z,16.80
2022-12-31T13:13:23.309Z,16.90
2022-12-31T13:15:54.904Z,16.50
2022-12-31T13:18:45.472Z,16.80
2022-12-31T13:21:38.202Z,17.20
2022-12-31T13:24:23.658Z,16.90
2022-12-31T13:27:04.157Z,17.20
2022-12-31T13:29:36.466Z,17.20
2022-12-31T13:32:10.903Z,17.30
2022-12-31T13:34:45.396Z,17.50
2022-12-31T13:37:27.679Z,17.60
2022-12-31T13:40:03.658Z,17.40
2022-12-31T13:42:44.612Z,17.00
2022-12-31T13:45:25.504Z,16.70
2022-12-31T13:47:58.095Z,16.40
2022-12-31T13:50:32.331Z,16.30
2022-12-31T13:53:13.568Z,16.20
2022-12-31T13:55:56.731Z,16.10
2022-12-31T13:58:34.787Z,16.10
2022-12-31T14:01:17.042Z,16.00
2022-12-31T14:03:55.535Z,16.00
2022-12-31T14:06:33.428Z,16.00
2022-12-31T14:09:01.882Z,16.00
2022-12-31T14:11:53.056Z,16.00
2022-12-31T14:14:33.786Z,16.10
2022-12-31T14:17:18.798Z,16.20
2022-12-31T14:20:02.566Z,16.30
2022-12-31T14:22:41.148Z,16.30
2022-12-31T14:25:23.416Z,16.20
2022-12-31T14:27:55.990Z,16.10
2022-12-31T14:30:30.699Z,16.00
2022-12-31T14:33:26.042Z,15.90
2022-12-31T14:36:20.654Z,15.80
2022-12-31T14:39:13.675Z,15.80
2022-12-31T14:41:58.925Z,15.80
2022-12-31T14:44:47.124Z,15.70
2022-12-31T14:47:33.909Z,15.70
2022-12-31T14:50:12.414Z,15.70
2022-12-31T14:52:53.053Z,15.60
2022-12-31T14:55:29.298Z,15.60
2022-12-31T14:58:27.324Z,15.60
2022-12-31T15:00:57.642Z,15.70
2022-12-31T15:03:38.837Z,15.60
2022-12-31T15:06:41.925Z,15.60
2022-12-31T15:09:24.305Z,15.50
2022-12-31T15:12:15.829Z,15.50
2022-12-31T15:15:13.800Z,15.40
2022-12-31T15:18:02.648Z,15.40
2022-12-31T15:20:57.903Z,15.40
2022-12-31T15:23:42.136Z,15.30
2022-12-31T15:26:24.076Z,15.30
2022-12-31T15:29:03.464Z,15.30
2022-12-31T15:31:34.498Z,15.20
2022-12-31T15:34:06.178Z,15.20
2022-12-31T15:36:38.116Z,15.20
2022-12-31T15:39:39.272Z,15.10
2022-12-31T15:42:49.693Z,15.10
2022-12-31T15:45:27.215Z,15.10
2022-12-31T15:48:01.756Z,15.10
2022-12-31T15:50:30.799Z,15.10
2022-12-31T15:53:02.872Z,15.10
2022-12-31T15:55:38.255Z,15.10
2022-12-31T15:58:12.313Z,15.10
2022-12-31T16:00:58.230Z,15.10
2022-12-31T16:03:30.277Z,15.10
2022-12-31T16:06:02.592Z,15.10
2022-12-31T16:08:34.382Z,15.10
2022-12-31T16:11:06.778Z,15.10
2022-12-31T16:13:40.349Z,15.10
2022-12-31T16:16:20.459Z,15.00
2022-12-31T16:18:50.118Z,15.10
2022-12-31T16:21:26.951Z,15.10
2022-12-31T16:23:58.094Z,15.10
2022-12-31T16:26:37.789Z,15.10
2022-12-31T16:29:05.834Z,15.10
2022-12-31T16:31:33.989Z,15.10
2022-12-31T16:34:14.307Z,15.10
2022-12-31T16:36:42.938Z,15.10
2022-12-31T16:39:31.754Z,15.10
2022-12-31T16:42:20.191Z,15.10
2022-12-31T16:44:49.726Z,15.20
2022-12-31T16:47:23.552Z,15.10
2022-12-31T16:49:59.916Z,15.20
2022-12-31T16:52:33.614Z,15.30
2022-12-31T16:55:01.748Z,15.20
2022-12-31T16:57:32.382Z,15.30
2022-12-31T17:00:03.916Z,15.20
2022-12-31T17:02:38.990Z,15.30
2022-12-31T17:05:20.755Z,15.40
2022-12-31T17:07:48.965Z,15.40
2022-12-31T17:10:23.405Z,15.50
2022-12-31T17:15:47.013Z,15.50
2022-12-31T17:18:21.147Z,15.50
2022-12-31T17:20:51.629Z,15.50
2022-12-31T17:23:28.994Z,15.50
2022-12-31T17:26:05.648Z,15.50
2022-12-31T17:28:44.297Z,15.50
2022-12-31T17:31:33.107Z,15.50
2022-12-31T17:34:24.069Z,15.50
2022-12-31T17:37:04.968Z,15.50
2022-12-31T17:39:49.294Z,15.40
2022-12-31T17:42:33.273Z,15.40
2022-12-31T17:45:06.608Z,15.40
2022-12-31T17:47:37.795Z,15.40
2022-12-31T17:50:22.282Z,15.40
2022-12-31T17:52:50.418Z,15.40
2022-12-31T17:55:18.372Z,15.40
2022-12-31T17:57:54.925Z,15.40
2022-12-31T18:00:27.681Z,15.40
2022-12-31T18:02:55.819Z,15.40
2022-12-31T18:05:26.424Z,15.50
2022-12-31T18:07:55.208Z,15.50
2022-12-31T18:10:27.962Z,15.40
2022-12-31T18:12:56.113Z,15.40
2022-12-31T18:15:26.123Z,15.40
2022-12-31T18:17:54.081Z,15.40
2022-12-31T18:20:22.092Z,15.40
2022-12-31T18:22:50.719Z,15.30
2022-12-31T18:25:22.577Z,15.40
2022-12-31T18:27:52.466Z,15.30
2022-12-31T18:30:20.624Z,15.30
2022-12-31T18:32:50.069Z,15.30
2022-12-31T18:35:49.011Z,15.30
2022-12-31T18:38:14.053Z,15.20
2022-12-31T18:40:46.436Z,15.30
2022-12-31T18:43:18.215Z,15.40
2022-12-31T18:45:47.737Z,15.40
2022-12-31T18:48:17.805Z,15.40
2022-12-31T18:50:46.924Z,15.40
2022-12-31T18:53:21.936Z,15.40
2022-12-31T18:55:53.181Z,15.40
2022-12-31T18:58:21.209Z,15.30
2022-12-31T19:00:51.081Z,15.30
2022-12-31T19:03:23.293Z,15.20
2022-12-31T19:05:52.598Z,15.20
2022-12-31T19:08:22.336Z,15.20
2022-12-31T19:10:53.659Z,15.20
2022-12-31T19:13:23.521Z,15.20
2022-12-31T19:15:53.961Z,15.20
2022-12-31T19:18:23.246Z,15.20
2022-12-31T19:20:54.695Z,15.20
2022-12-31T19:23:23.061Z,15.20
2022-12-31T19:25:51.546Z,15.10
2022-12-31T19:28:23.196Z,15.10
2022-12-31T19:30:51.715Z,15.10
2022-12-31T19:33:20.758Z,15.20
2022-12-31T19:35:50.264Z,15.20
2022-12-31T19:38:22.911Z,15.20
2022-12-31T19:40:52.249Z,15.20
2022-12-31T19:43:24.046Z,15.10
2022-12-31T19:45:53.000Z,15.20
2022-12-31T19:48:30.513Z,15.20
2022-12-31T19:51:02.418Z,15.20
2022-12-31T19:53:30.502Z,15.20
2022-12-31T19:55:58.468Z,15.20
2022-12-31T19:58:27.799Z,15.30
2022-12-31T20:01:02.362Z,15.30
2022-12-31T20:03:32.431Z,15.40
2022-12-31T20:06:08.237Z,15.30
2022-12-31T20:08:38.809Z,15.40
2022-12-31T20:11:10.661Z,15.50
2022-12-31T20:13:39.481Z,15.40
2022-12-31T20:16:09.733Z,15.40
2022-12-31T20:18:39.200Z,15.40
2022-12-31T20:21:14.581Z,15.40
2022-12-31T20:23:42.599Z,15.40
2022-12-31T20:26:11.586Z,15.40
2022-12-31T20:28:39.791Z,15.40
2022-12-31T20:31:09.541Z,15.40
2022-12-31T20:33:37.906Z,15.50
2022-12-31T20:36:08.020Z,15.40
2022-12-31T20:38:41.288Z,15.50
2022-12-31T20:41:13.215Z,15.50
2022-12-31T20:43:41.731Z,15.40
2022-12-31T20:46:15.688Z,15.40
2022-12-31T20:48:44.762Z,15.50
2022-12-31T20:51:13.783Z,15.40
2022-12-31T20:53:48.471Z,15.40
2022-12-31T20:56:17.168Z,15.30
2022-12-31T20:58:45.863Z,15.30
2022-12-31T21:01:15.780Z,15.30
2022-12-31T21:06:36.067Z,15.40
2022-12-31T21:09:08.346Z,15.30
2022-12-31T21:11:54.233Z,15.30
2022-12-31T21:14:22.641Z,15.30
2022-12-31T21:16:51.137Z,15.30
2022-12-31T21:19:19.035Z,15.40
2022-12-31T21:21:48.103Z,15.30
2022-12-31T21:24:23.344Z,15.40
2022-12-31T21:26:52.245Z,15.40
2022-12-31T21:29:20.425Z,15.40
2022-12-31T21:31:48.533Z,15.40
2022-12-31T21:34:16.505Z,15.40
2022-12-31T21:36:44.402Z,15.40
2022-12-31T21:39:12.379Z,15.40
2022-12-31T21:41:53.925Z,15.30
2022-12-31T21:44:24.112Z,15.30
2022-12-31T21:47:34.881Z,15.30
2022-12-31T21:50:04.706Z,15.40
2022-12-31T21:52:34.092Z,15.20
2022-12-31T21:55:21.802Z,15.20
2022-12-31T21:58:24.849Z,15.20
2022-12-31T22:00:58.936Z,15.20
2022-12-31T22:03:28.219Z,15.10
2022-12-31T22:06:00.631Z,15.00
2022-12-31T22:08:30.969Z,15.00
2022-12-31T22:10:59.289Z,14.90
2022-12-31T22:13:28.744Z,15.00
2022-12-31T22:16:04.661Z,14.90
2022-12-31T22:18:35.356Z,14.90
2022-12-31T22:21:10.875Z,14.90
2022-12-31T22:23:44.205Z,14.90
2022-12-31T22:26:15.241Z,14.80
2022-12-31T22:28:54.147Z,14.80
2022-12-31T22:31:25.399Z,14.80
2022-12-31T22:33:53.906Z,14.80
2022-12-31T22:36:24.659Z,14.70
2022-12-31T22:38:58.288Z,14.60
2022-12-31T22:41:28.377Z,14.70
2022-12-31T22:44:04.598Z,14.70
2022-12-31T22:46:34.822Z,14.60
2022-12-31T22:49:05.155Z,14.60
2022-12-31T22:51:57.504Z,14.60
2022-12-31T22:54:22.218Z,14.50
2022-12-31T22:56:50.162Z,14.50
2022-12-31T22:59:19.508Z,14.50
2022-12-31T23:01:48.218Z,14.50
2022-12-31T23:04:16.600Z,14.60
2022-12-31T23:06:47.197Z,14.60
2022-12-31T23:09:35.648Z,14.50
2022-12-31T23:12:05.282Z,14.60
2022-12-31T23:14:52.597Z,14.60
2022-12-31T23:17:41.239Z,14.60
2022-12-31T23:20:32.381Z,14.60
2022-12-31T23:23:12.640Z,14.60
2022-12-31T23:25:43.633Z,14.70
2022-12-31T23:28:14.861Z,14.70
2022-12-31T23:30:44.866Z,14.60
2022-12-31T23:33:17.319Z,14.60
2022-12-31T23:35:45.729Z,14.70
2022-12-31T23:38:16.591Z,14.60
2022-12-31T23:40:44.955Z,14.60
2022-12-31T23:43:22.489Z,14.60
2022-12-31T23:45:55.326Z,14.50
2022-12-31T23:48:23.826Z,14.50
2022-12-31T23:50:54.264Z,14.40
2022-12-31T23:53:23.176Z,14.50
2022-12-31T23:55:51.753Z,14.40
2022-12-31T23:58:20.974Z,14.40
